Enterprise, Alabama
Current Conditions -  °F | °C
As of 1:56 AM on Sunday 26 Oct 2014 (Local Time) from KSXS Reporting Station
Clear Clear  
Wind Chill: 57°   Ceiling: Unl
Heat Index: 57°   Visibility: 10mi
Dew Point: 53°   Wind: 3mph
Humidity: 85%   Direction: 340°NNW
Pressure: 30.05"   Gusts: NA
Location:  31.32°N, 85.85°W
Report Text: KSXS 260656Z AUTO 34003KT 10SM CLR 14/12 A3005 RMK AO2 SLP176 T01400116
Loading
Personal Weather Stations






























Interactive Weather Map
Tropical Storm Tracking
New forecast layout! Learn more

10-Day Weather Forecast

Advertisements
Track Severe Weather on mobile